createdAt,value
2017-08-07T00:00:43.989Z,0
2017-08-07T00:01:45.772Z,0
2017-08-07T00:02:47.445Z,0
2017-08-07T00:03:50.189Z,0
2017-08-07T00:04:51.923Z,0
2017-08-07T00:05:53.698Z,0
2017-08-07T00:06:55.406Z,0
2017-08-07T00:07:57.144Z,0
2017-08-07T00:08:58.868Z,0
2017-08-07T00:10:00.595Z,0
2017-08-07T00:11:02.448Z,0
2017-08-07T00:12:04.162Z,0
2017-08-07T00:13:05.900Z,0
2017-08-07T00:14:07.646Z,0
2017-08-07T00:15:09.397Z,0
2017-08-07T00:16:11.119Z,0
2017-08-07T00:17:12.827Z,0
2017-08-07T00:18:14.594Z,0
2017-08-07T00:19:16.299Z,0
2017-08-07T00:20:17.953Z,0
2017-08-07T00:21:19.742Z,0
2017-08-07T00:22:21.633Z,0
2017-08-07T00:23:23.335Z,0
2017-08-07T00:24:25.089Z,0
2017-08-07T00:25:26.742Z,0
2017-08-07T00:26:29.505Z,0
2017-08-07T00:27:31.224Z,0
2017-08-07T00:28:33.032Z,0
2017-08-07T00:29:34.753Z,0
2017-08-07T00:30:36.433Z,0
2017-08-07T00:31:38.173Z,0
2017-08-07T00:32:39.818Z,0
2017-08-07T00:33:41.548Z,0
2017-08-07T00:34:43.321Z,0
2017-08-07T00:35:45.068Z,0
2017-08-07T00:36:46.886Z,0
2017-08-07T00:37:48.541Z,0
2017-08-07T00:38:50.272Z,0
2017-08-07T00:39:51.991Z,0
2017-08-07T00:40:53.711Z,0
2017-08-07T00:41:55.425Z,0
2017-08-07T00:42:57.163Z,0
2017-08-07T00:43:58.879Z,0
2017-08-07T00:45:00.578Z,0
2017-08-07T00:46:02.390Z,0
2017-08-07T00:47:04.115Z,0
2017-08-07T00:48:05.841Z,0
2017-08-07T00:49:07.554Z,0
2017-08-07T00:50:09.209Z,0
2017-08-07T00:51:10.860Z,0
2017-08-07T00:52:12.604Z,0
2017-08-07T00:53:14.326Z,0
2017-08-07T00:54:15.978Z,0
2017-08-07T00:55:17.707Z,0
2017-08-07T00:56:19.424Z,0
2017-08-07T00:57:21.096Z,0
2017-08-07T00:58:22.841Z,0
2017-08-07T00:59:24.497Z,0
2017-08-07T01:00:26.238Z,0
2017-08-07T01:01:27.968Z,0
2017-08-07T01:02:30.765Z,0
2017-08-07T01:03:32.583Z,0
2017-08-07T01:04:34.367Z,0
2017-08-07T01:05:36.094Z,0
2017-08-07T01:06:37.787Z,0
2017-08-07T01:07:39.507Z,0
2017-08-07T01:08:41.196Z,0
2017-08-07T01:09:42.905Z,0
2017-08-07T01:10:44.736Z,0
2017-08-07T01:11:46.475Z,0
2017-08-07T01:12:48.290Z,0
2017-08-07T01:13:49.955Z,0
2017-08-07T01:14:52.803Z,0
2017-08-07T01:15:54.523Z,0
2017-08-07T01:16:56.331Z,0
2017-08-07T01:17:58.089Z,0
2017-08-07T01:19:00.889Z,0
2017-08-07T01:20:02.624Z,0
2017-08-07T01:21:06.385Z,0
2017-08-07T01:22:08.098Z,0
2017-08-07T01:23:09.911Z,0
2017-08-07T01:24:11.648Z,0
2017-08-07T01:25:13.416Z,0
2017-08-07T01:26:15.138Z,0
2017-08-07T01:27:16.888Z,0
2017-08-07T01:28:18.635Z,0
2017-08-07T01:29:21.444Z,0
2017-08-07T01:30:23.182Z,0
2017-08-07T01:31:25.025Z,0
2017-08-07T01:32:26.672Z,0
2017-08-07T01:33:29.483Z,0
2017-08-07T01:34:31.807Z,0
2017-08-07T01:35:33.552Z,0
2017-08-07T01:36:35.248Z,0
2017-08-07T01:37:37.052Z,0
2017-08-07T01:38:38.812Z,0
2017-08-07T01:39:40.644Z,0
2017-08-07T01:40:42.428Z,0
2017-08-07T01:41:44.242Z,0
2017-08-07T01:42:45.958Z,0
2017-08-07T01:43:48.748Z,0
2017-08-07T01:44:50.436Z,0
2017-08-07T01:45:52.246Z,0
2017-08-07T01:46:53.961Z,0
2017-08-07T01:47:55.747Z,0
2017-08-07T01:48:57.464Z,0
2017-08-07T01:50:00.215Z,0
2017-08-07T01:51:01.893Z,0
2017-08-07T01:52:03.588Z,0
2017-08-07T01:53:05.269Z,0
2017-08-07T01:54:08.086Z,0
2017-08-07T01:55:09.851Z,0
2017-08-07T01:56:11.592Z,0
2017-08-07T01:57:13.307Z,0
2017-08-07T01:58:15.085Z,0
2017-08-07T01:59:16.805Z,0
2017-08-07T02:00:18.556Z,0
2017-08-07T02:01:20.274Z,0
2017-08-07T02:02:22.025Z,0
2017-08-07T02:03:23.748Z,0
2017-08-07T02:04:25.616Z,0
2017-08-07T02:05:27.243Z,0
2017-08-07T02:06:28.980Z,0
2017-08-07T02:07:30.808Z,0
2017-08-07T02:08:32.529Z,0
2017-08-07T02:09:34.180Z,0
2017-08-07T02:10:35.941Z,0
2017-08-07T02:11:38.704Z,0
2017-08-07T02:12:40.438Z,0
2017-08-07T02:13:42.199Z,0
2017-08-07T02:14:43.892Z,0
2017-08-07T02:15:45.622Z,0
2017-08-07T02:16:47.451Z,0
2017-08-07T02:17:49.173Z,0
2017-08-07T02:18:50.949Z,0
2017-08-07T02:19:52.693Z,0
2017-08-07T02:20:54.430Z,0
2017-08-07T02:21:56.166Z,0
2017-08-07T02:22:57.920Z,0
2017-08-07T02:23:59.666Z,0
2017-08-07T02:25:02.138Z,0
2017-08-07T02:26:03.892Z,0
2017-08-07T02:27:05.543Z,0
2017-08-07T02:28:07.271Z,0
2017-08-07T02:29:09.000Z,0
2017-08-07T02:30:10.806Z,0
2017-08-07T02:31:12.560Z,0
2017-08-07T02:32:14.374Z,0
2017-08-07T02:33:16.034Z,0
2017-08-07T02:34:17.792Z,0
2017-08-07T02:35:19.516Z,0
2017-08-07T02:36:22.303Z,0
2017-08-07T02:37:23.956Z,0
2017-08-07T02:38:25.783Z,0
2017-08-07T02:39:27.514Z,0
2017-08-07T02:40:29.322Z,0
2017-08-07T02:41:31.072Z,0
2017-08-07T02:42:32.866Z,0
2017-08-07T02:43:34.590Z,0
2017-08-07T02:44:37.333Z,0
2017-08-07T02:45:39.062Z,0
2017-08-07T02:46:40.898Z,0
2017-08-07T02:47:42.624Z,0
2017-08-07T02:48:44.345Z,0
2017-08-07T02:49:46.092Z,0
2017-08-07T02:50:47.873Z,0
2017-08-07T02:51:49.608Z,0
2017-08-07T02:52:51.394Z,0
2017-08-07T02:53:53.115Z,0
2017-08-07T02:54:54.814Z,0
2017-08-07T02:55:56.536Z,0
2017-08-07T02:56:58.379Z,0
2017-08-07T02:58:00.200Z,0
2017-08-07T02:59:01.954Z,0
2017-08-07T03:00:03.612Z,0
2017-08-07T03:01:05.322Z,0
2017-08-07T03:02:06.980Z,0
2017-08-07T03:03:08.739Z,0
2017-08-07T03:04:10.452Z,0
2017-08-07T03:05:12.241Z,0
2017-08-07T03:06:13.971Z,0
2017-08-07T03:07:15.671Z,0
2017-08-07T03:08:17.404Z,0
2017-08-07T03:09:19.284Z,0
2017-08-07T03:10:21.014Z,0
2017-08-07T03:11:22.854Z,0
2017-08-07T03:12:24.579Z,0
2017-08-07T03:13:26.286Z,0
2017-08-07T03:14:28.065Z,0
2017-08-07T03:15:29.803Z,0
2017-08-07T03:16:31.589Z,0
2017-08-07T03:17:33.267Z,0
2017-08-07T03:18:35.004Z,0
2017-08-07T03:19:36.716Z,0
2017-08-07T03:20:39.490Z,0
2017-08-07T03:21:41.211Z,0
2017-08-07T03:22:42.928Z,0
2017-08-07T03:23:45.470Z,0
2017-08-07T03:24:47.136Z,0
2017-08-07T03:26:03.890Z,0
2017-08-07T03:27:05.560Z,0
2017-08-07T03:28:08.443Z,0
2017-08-07T03:29:10.139Z,0
2017-08-07T04:15:22.756Z,156
2017-08-07T04:16:24.376Z,168
2017-08-07T04:17:26.098Z,176
2017-08-07T04:18:27.754Z,188
2017-08-07T04:19:29.591Z,196
2017-08-07T04:20:31.257Z,208
2017-08-07T04:21:32.912Z,216
2017-08-07T04:22:34.752Z,232
2017-08-07T04:23:36.463Z,240
2017-08-07T04:24:38.101Z,252
2017-08-07T04:25:39.761Z,264
2017-08-07T04:26:41.445Z,276
2017-08-07T04:27:43.113Z,288
2017-08-07T04:28:44.782Z,300
2017-08-07T04:29:46.469Z,308
2017-08-07T04:30:48.203Z,324
2017-08-07T04:31:49.869Z,332
2017-08-07T04:32:51.681Z,344
2017-08-07T04:33:53.358Z,356
2017-08-07T04:34:55.046Z,364
2017-08-07T04:35:56.713Z,376
2017-08-07T04:36:58.433Z,392
2017-08-07T04:38:00.084Z,400
2017-08-07T04:39:01.838Z,412
2017-08-07T04:40:03.491Z,420
2017-08-07T04:41:05.346Z,432
2017-08-07T04:42:07.014Z,440
2017-08-07T04:43:09.782Z,452
2017-08-07T04:44:11.479Z,464
2017-08-07T04:45:13.244Z,476
2017-08-07T04:46:14.903Z,488
2017-08-07T04:47:18.708Z,500
2017-08-07T04:48:20.409Z,512
2017-08-07T04:49:22.175Z,524
2017-08-07T04:50:23.839Z,536
2017-08-07T04:51:25.497Z,548
2017-08-07T04:52:27.148Z,556
2017-08-07T04:53:28.851Z,568
2017-08-07T04:54:30.553Z,576
2017-08-07T04:55:34.319Z,584
2017-08-07T04:56:35.986Z,596
2017-08-07T04:57:38.714Z,608
2017-08-07T04:58:40.375Z,612
2017-08-07T04:59:42.110Z,624
2017-08-07T05:00:43.770Z,632
2017-08-07T05:01:45.500Z,644
2017-08-07T05:02:47.168Z,652
2017-08-07T05:03:48.910Z,660
2017-08-07T05:04:50.653Z,672
2017-08-07T05:05:52.411Z,684
2017-08-07T05:06:54.103Z,688
2017-08-07T05:07:55.896Z,696
2017-08-07T05:08:57.543Z,708
2017-08-07T05:09:59.272Z,716
2017-08-07T05:11:01.002Z,724
2017-08-07T05:12:02.769Z,732
2017-08-07T05:13:04.433Z,736
2017-08-07T05:14:06.208Z,748
2017-08-07T05:15:07.925Z,752
2017-08-07T05:16:09.654Z,760
2017-08-07T05:17:11.353Z,764
2017-08-07T05:18:13.058Z,772
2017-08-07T05:19:14.714Z,776
2017-08-07T05:20:17.485Z,784
2017-08-07T05:21:19.133Z,796
2017-08-07T05:22:20.867Z,804
2017-08-07T05:23:22.529Z,812
2017-08-07T05:24:24.180Z,820
2017-08-07T05:25:25.913Z,828
2017-08-07T05:26:28.752Z,832
2017-08-07T05:27:30.414Z,836
2017-08-07T05:28:43.807Z,836
2017-08-07T05:29:45.537Z,848
2017-08-07T05:30:47.313Z,852
2017-08-07T05:31:49.062Z,856
2017-08-07T05:32:50.845Z,860
2017-08-07T05:33:52.955Z,864
2017-08-07T05:34:54.756Z,864
2017-08-07T05:35:56.482Z,864
2017-08-07T05:36:58.208Z,860
2017-08-07T05:37:59.975Z,856
2017-08-07T05:39:01.708Z,852
2017-08-07T05:40:03.549Z,852
2017-08-07T05:41:05.327Z,856
2017-08-07T05:42:07.069Z,860
2017-08-07T05:43:08.818Z,860
2017-08-07T05:44:10.563Z,856
2017-08-07T05:45:14.371Z,868
2017-08-07T05:46:16.133Z,872
2017-08-07T05:47:17.913Z,876
2017-08-07T05:48:19.572Z,880
2017-08-07T05:49:21.339Z,884
2017-08-07T05:50:23.084Z,896
2017-08-07T05:51:25.843Z,912
2017-08-07T05:52:27.592Z,916
2017-08-07T05:53:29.304Z,920
2017-08-07T05:54:30.987Z,912
2017-08-07T05:55:37.337Z,904
2017-08-07T05:56:39.074Z,916
2017-08-07T05:57:40.836Z,920
2017-08-07T05:58:42.562Z,920
2017-08-07T05:59:45.168Z,924
2017-08-07T06:00:46.974Z,928
2017-08-07T06:01:48.757Z,928
2017-08-07T06:02:50.504Z,932
2017-08-07T06:03:53.262Z,932
2017-08-07T06:04:54.968Z,936
2017-08-07T06:05:56.767Z,940
2017-08-07T06:06:58.499Z,952
2017-08-07T06:08:00.252Z,964
2017-08-07T06:09:01.927Z,984
2017-08-07T06:10:03.726Z,1004
2017-08-07T06:11:05.454Z,1020
2017-08-07T06:12:07.261Z,1040
2017-08-07T06:13:08.937Z,1048
2017-08-07T06:14:10.664Z,1060
2017-08-07T06:15:12.406Z,1084
2017-08-07T06:16:14.269Z,1100
2017-08-07T06:17:15.985Z,1116
2017-08-07T06:18:17.754Z,1132
2017-08-07T06:19:19.488Z,1140
2017-08-07T06:20:21.259Z,1180
2017-08-07T06:21:23.019Z,1216
2017-08-07T06:22:24.825Z,1244
2017-08-07T06:23:26.573Z,1256
2017-08-07T06:24:28.317Z,1316
2017-08-07T06:25:29.967Z,1400
2017-08-07T06:26:32.736Z,1548
2017-08-07T06:27:34.408Z,1680
2017-08-07T06:28:36.291Z,1760
2017-08-07T06:29:38.014Z,1796
2017-08-07T06:30:39.778Z,1812
2017-08-07T06:31:41.512Z,1896
2017-08-07T06:32:43.340Z,2012
2017-08-07T06:33:45.122Z,2044
2017-08-07T06:34:46.904Z,2040
2017-08-07T06:35:48.623Z,2092
2017-08-07T06:36:50.374Z,2164
2017-08-07T06:37:52.067Z,2228
2017-08-07T06:38:53.797Z,2220
2017-08-07T06:39:55.553Z,2208
2017-08-07T06:40:57.298Z,2208
2017-08-07T06:42:00.216Z,2216
2017-08-07T06:43:01.961Z,2184
2017-08-07T06:44:03.765Z,2124
2017-08-07T06:45:05.436Z,2044
2017-08-07T06:46:07.208Z,1988
2017-08-07T06:47:08.860Z,1956
2017-08-07T06:48:12.682Z,1988
2017-08-07T06:49:14.425Z,1980
2017-08-07T06:50:20.936Z,1964
2017-08-07T06:51:22.713Z,1960
2017-08-07T06:52:31.398Z,1988
2017-08-07T06:53:33.225Z,2100
2017-08-07T06:54:34.937Z,2128
2017-08-07T06:55:37.667Z,2148
2017-08-07T06:56:39.395Z,2216
2017-08-07T06:57:41.251Z,2216
2017-08-07T06:58:43.040Z,2124
2017-08-07T06:59:44.817Z,2048
2017-08-07T07:00:46.523Z,2004
2017-08-07T07:01:48.284Z,2012
2017-08-07T07:02:50.090Z,2020
2017-08-07T07:03:51.823Z,2008
2017-08-07T07:04:53.471Z,2004
2017-08-07T07:05:55.228Z,1972
2017-08-07T07:06:56.924Z,1960
2017-08-07T07:07:58.610Z,1928
2017-08-07T07:09:02.412Z,1884
2017-08-07T07:10:04.101Z,1816
2017-08-07T07:11:05.793Z,1748
2017-08-07T07:12:07.448Z,1636
2017-08-07T07:13:09.107Z,1532
2017-08-07T07:14:10.759Z,1476
2017-08-07T07:15:12.413Z,1440
2017-08-07T07:16:20.881Z,1400
2017-08-07T07:17:22.537Z,1368
2017-08-07T07:18:34.814Z,1340
2017-08-07T07:19:36.479Z,1312
2017-08-07T07:20:38.166Z,1280
2017-08-07T07:21:39.821Z,1236
2017-08-07T07:22:47.326Z,1204
2017-08-07T07:23:49.007Z,1168
2017-08-07T07:24:52.779Z,1156
2017-08-07T07:25:54.464Z,1148
2017-08-07T07:26:56.163Z,1160
2017-08-07T07:27:57.852Z,1176
2017-08-07T07:28:59.543Z,1164
2017-08-07T07:30:01.306Z,1144
2017-08-07T07:31:02.987Z,1132
2017-08-07T07:32:05.716Z,1112
2017-08-07T07:33:07.376Z,1096
2017-08-07T07:34:09.111Z,1080
2017-08-07T07:35:10.767Z,1072
2017-08-07T07:36:12.445Z,1052
2017-08-07T07:37:14.112Z,1040
2017-08-07T07:38:15.879Z,1032
2017-08-07T07:39:17.648Z,1036
2017-08-07T07:40:19.323Z,1044
2017-08-07T07:41:21.067Z,1040
2017-08-07T07:42:22.738Z,1032
2017-08-07T07:43:24.461Z,1036
2017-08-07T07:44:26.177Z,1036
2017-08-07T07:45:27.915Z,1028
2017-08-07T07:46:29.683Z,1012
2017-08-07T07:47:31.498Z,1004
2017-08-07T07:48:33.208Z,996
2017-08-07T07:49:35.067Z,980
2017-08-07T07:50:36.905Z,984
2017-08-07T07:51:38.660Z,980
2017-08-07T07:52:40.421Z,968
2017-08-07T07:53:42.095Z,964
2017-08-07T07:54:44.000Z,964
2017-08-07T07:55:45.723Z,980
2017-08-07T07:56:47.512Z,996
2017-08-07T07:57:49.204Z,992
2017-08-07T07:58:51.024Z,1000
2017-08-07T07:59:52.745Z,1008
2017-08-07T08:00:54.476Z,1008
2017-08-07T08:01:56.201Z,1004
2017-08-07T08:02:58.003Z,1004
2017-08-07T08:03:59.671Z,1016
2017-08-07T08:05:01.404Z,1008
2017-08-07T08:06:03.121Z,1004
2017-08-07T08:07:04.890Z,996
2017-08-07T08:08:06.633Z,984
2017-08-07T08:09:09.359Z,984
2017-08-07T08:10:11.092Z,980
2017-08-07T08:11:12.906Z,980
2017-08-07T08:12:14.648Z,968
2017-08-07T08:13:16.435Z,964
2017-08-07T08:14:18.138Z,960
2017-08-07T08:15:20.931Z,956
2017-08-07T08:16:22.654Z,952
2017-08-07T08:17:24.393Z,952
2017-08-07T08:18:26.160Z,952
2017-08-07T08:19:27.872Z,956
2017-08-07T08:20:29.662Z,972
2017-08-07T08:21:31.325Z,980
2017-08-07T08:22:33.190Z,976
2017-08-07T08:23:34.902Z,972
2017-08-07T08:24:36.667Z,976
2017-08-07T08:25:38.388Z,968
2017-08-07T08:26:40.158Z,968
2017-08-07T08:27:41.872Z,964
2017-08-07T08:28:44.666Z,968
2017-08-07T08:29:46.424Z,976
2017-08-07T08:30:48.159Z,980
2017-08-07T08:31:49.822Z,984
2017-08-07T08:32:51.676Z,980
2017-08-07T08:33:53.414Z,980
2017-08-07T08:34:55.187Z,996
2017-08-07T08:35:56.899Z,1004
2017-08-07T08:36:58.599Z,1020
2017-08-07T08:38:00.352Z,1008
2017-08-07T08:39:02.213Z,1036
2017-08-07T08:40:03.939Z,1060
2017-08-07T08:41:05.831Z,1076
2017-08-07T08:42:07.597Z,1088
2017-08-07T08:43:09.362Z,1104
2017-08-07T08:44:11.087Z,1124
2017-08-07T08:45:12.778Z,1156
2017-08-07T08:46:14.492Z,1172
2017-08-07T08:47:16.267Z,1148
2017-08-07T08:48:18.015Z,1144
2017-08-07T08:49:19.739Z,1148
2017-08-07T08:50:21.454Z,1156
2017-08-07T08:51:23.260Z,1160
2017-08-07T08:52:24.906Z,1156
2017-08-07T08:53:26.707Z,1160
2017-08-07T08:54:28.364Z,1176
2017-08-07T08:55:30.118Z,1180
2017-08-07T08:56:31.857Z,1184
2017-08-07T08:57:33.561Z,1188
2017-08-07T08:58:35.285Z,1188
2017-08-07T08:59:36.962Z,1196
2017-08-07T09:00:38.732Z,1204
2017-08-07T09:01:40.505Z,1212
2017-08-07T09:02:42.248Z,1216
2017-08-07T09:03:43.972Z,1204
2017-08-07T09:04:45.883Z,1228
2017-08-07T09:05:47.622Z,1236
2017-08-07T09:06:49.474Z,1232
2017-08-07T09:07:51.150Z,1244
2017-08-07T09:08:52.961Z,1252
2017-08-07T09:09:54.819Z,1260
2017-08-07T09:10:56.597Z,1256
2017-08-07T09:11:58.387Z,1244
2017-08-07T09:13:00.217Z,1248
2017-08-07T09:14:01.939Z,1248
2017-08-07T09:15:03.819Z,1256
2017-08-07T09:16:05.556Z,1244
2017-08-07T09:17:07.350Z,1244
2017-08-07T09:18:09.009Z,1252
2017-08-07T09:19:10.715Z,1240
2017-08-07T09:20:12.475Z,1228
2017-08-07T09:21:14.329Z,1216
2017-08-07T09:22:16.066Z,1224
2017-08-07T09:23:18.053Z,1216
2017-08-07T09:24:19.762Z,1220
2017-08-07T09:25:23.562Z,1208
2017-08-07T09:26:25.346Z,1196
2017-08-07T09:27:27.022Z,1196
2017-08-07T09:28:33.423Z,1196
2017-08-07T09:29:35.180Z,1204
2017-08-07T09:30:37.068Z,1196
2017-08-07T09:31:38.855Z,1196
2017-08-07T09:32:45.429Z,1208
2017-08-07T09:33:47.220Z,1216
2017-08-07T09:34:49.148Z,1212
2017-08-07T09:35:50.892Z,1200
2017-08-07T09:36:52.721Z,1196
2017-08-07T09:37:54.540Z,1188
2017-08-07T09:38:56.311Z,1208
2017-08-07T09:39:58.039Z,1208
2017-08-07T09:41:00.826Z,1204
2017-08-07T09:42:02.485Z,1208
2017-08-07T09:43:04.300Z,1248
2017-08-07T09:44:06.045Z,1284
2017-08-07T09:45:07.839Z,1296
2017-08-07T09:46:09.735Z,1300
2017-08-07T09:47:11.528Z,1308
2017-08-07T09:48:13.363Z,1304
2017-08-07T09:49:15.119Z,1200
2017-08-07T09:50:17.913Z,1208
2017-08-07T09:51:19.657Z,1252
2017-08-07T09:52:21.449Z,1272
2017-08-07T09:53:24.341Z,1296
2017-08-07T09:54:26.072Z,1348
2017-08-07T09:55:27.932Z,1388
2017-08-07T09:56:29.647Z,1384
2017-08-07T09:57:31.408Z,1372
2017-08-07T09:58:33.156Z,1396
2017-08-07T09:59:34.828Z,1444
2017-08-07T10:00:36.554Z,1500
2017-08-07T10:01:38.278Z,1500
2017-08-07T10:02:40.041Z,1444
2017-08-07T10:03:41.751Z,1448
2017-08-07T10:04:43.466Z,1400
2017-08-07T10:05:45.493Z,1384
2017-08-07T10:06:48.266Z,1384
2017-08-07T10:07:49.919Z,1332
2017-08-07T10:08:51.578Z,1328
2017-08-07T10:09:53.252Z,1312
2017-08-07T10:10:55.080Z,1148
2017-08-07T10:11:56.776Z,1152
2017-08-07T10:12:58.552Z,1144
2017-08-07T10:14:00.245Z,1372
2017-08-07T10:15:01.944Z,1396
2017-08-07T10:16:03.779Z,1396
2017-08-07T10:17:05.499Z,1356
2017-08-07T10:18:07.238Z,1380
2017-08-07T10:19:08.963Z,1384
2017-08-07T10:20:10.716Z,1396
2017-08-07T10:21:12.494Z,1428
2017-08-07T10:22:14.278Z,1472
2017-08-07T10:23:15.981Z,1544
2017-08-07T10:24:17.715Z,1572
2017-08-07T10:25:19.485Z,1656
2017-08-07T10:26:21.523Z,1676
2017-08-07T10:27:23.200Z,1736
2017-08-07T10:28:24.903Z,1692
2017-08-07T10:29:26.662Z,1656
2017-08-07T10:30:28.458Z,1732
2017-08-07T10:31:30.185Z,1620
2017-08-07T10:32:31.977Z,1496
2017-08-07T10:33:33.723Z,1372
2017-08-07T10:34:35.557Z,1356
2017-08-07T10:35:37.366Z,1316
2017-08-07T10:36:39.376Z,1368
2017-08-07T10:37:41.101Z,1488
2017-08-07T10:38:42.937Z,1720
2017-08-07T10:39:44.632Z,1976
2017-08-07T10:40:46.433Z,1884
2017-08-07T10:41:48.087Z,1952
2017-08-07T10:42:49.864Z,2268
2017-08-07T10:43:51.645Z,2400
2017-08-07T10:44:53.478Z,2224
2017-08-07T10:45:55.215Z,1972
2017-08-07T10:46:57.078Z,1980
2017-08-07T10:47:58.805Z,2092
2017-08-07T10:49:00.667Z,2040
2017-08-07T10:50:02.380Z,1876
2017-08-07T10:51:04.257Z,1876
2017-08-07T10:52:06.064Z,1620
2017-08-07T10:53:07.751Z,1464
2017-08-07T10:54:09.531Z,1424
2017-08-07T10:55:12.365Z,1548
2017-08-07T10:56:14.081Z,1568
2017-08-07T10:57:15.860Z,1624
2017-08-07T10:58:17.719Z,1748
2017-08-07T10:59:19.495Z,1876
2017-08-07T11:00:21.255Z,1856
2017-08-07T11:01:23.047Z,1708
2017-08-07T11:02:24.842Z,1852
2017-08-07T11:03:26.506Z,1904
2017-08-07T11:04:28.157Z,1684
2017-08-07T11:05:30.000Z,1620
2017-08-07T11:06:31.669Z,1592
2017-08-07T11:07:33.630Z,1536
2017-08-07T11:08:35.320Z,1452
2017-08-07T11:09:36.996Z,1380
2017-08-07T11:10:38.671Z,1336
2017-08-07T11:11:40.342Z,1232
2017-08-07T11:12:42.019Z,1216
2017-08-07T11:13:43.740Z,1208
2017-08-07T11:14:45.510Z,1060
2017-08-07T11:15:47.169Z,1172
2017-08-07T11:16:48.828Z,1176
2017-08-07T11:17:50.647Z,996
2017-08-07T11:18:52.315Z,1180
2017-08-07T11:19:53.972Z,1196
2017-08-07T11:20:55.736Z,1196
2017-08-07T11:21:57.397Z,1224
2017-08-07T11:23:00.017Z,1264
2017-08-07T11:24:01.698Z,1304
2017-08-07T11:25:03.453Z,1320
2017-08-07T11:26:05.134Z,1332
2017-08-07T11:27:07.070Z,1276
2017-08-07T11:28:08.987Z,1228
2017-08-07T11:29:10.826Z,1200
2017-08-07T11:30:12.557Z,1220
2017-08-07T11:31:14.323Z,1188
2017-08-07T11:32:16.068Z,1172
2017-08-07T11:33:17.791Z,1160
2017-08-07T11:34:19.454Z,1148
2017-08-07T11:35:21.145Z,1244
2017-08-07T11:36:22.844Z,1408
2017-08-07T11:37:24.570Z,1560
2017-08-07T11:38:26.428Z,1696
2017-08-07T11:39:28.051Z,1732
2017-08-07T11:40:29.725Z,1728
2017-08-07T11:41:31.384Z,1560
2017-08-07T11:42:33.048Z,1532
2017-08-07T11:43:34.729Z,1408
2017-08-07T11:44:36.387Z,1712
2017-08-07T11:45:38.048Z,1604
2017-08-07T11:46:39.858Z,1448
2017-08-07T11:47:41.513Z,1412
2017-08-07T11:48:43.262Z,1332
2017-08-07T11:49:44.961Z,1232
2017-08-07T11:50:46.712Z,1144
2017-08-07T11:51:48.374Z,1104
2017-08-07T11:52:50.026Z,1108
2017-08-07T11:53:51.693Z,1092
2017-08-07T11:54:53.348Z,1088
2017-08-07T11:55:55.005Z,1076
2017-08-07T11:56:56.846Z,1112
2017-08-07T11:57:58.564Z,1172
2017-08-07T11:59:00.286Z,1196
2017-08-07T12:00:01.986Z,1180
2017-08-07T12:01:03.732Z,1156
2017-08-07T12:02:05.379Z,1156
2017-08-07T12:03:07.172Z,1156
2017-08-07T12:04:08.842Z,1028
2017-08-07T12:05:10.628Z,1028
2017-08-07T12:06:12.371Z,1172
2017-08-07T12:07:14.054Z,1228
2017-08-07T12:08:15.809Z,1328
2017-08-07T12:09:18.367Z,1376
2017-08-07T12:10:20.149Z,1364
2017-08-07T12:11:21.821Z,1248
2017-08-07T12:12:23.634Z,1296
2017-08-07T12:13:25.303Z,1260
2017-08-07T12:14:27.009Z,1248
2017-08-07T12:15:28.663Z,1232
2017-08-07T12:16:30.412Z,1228
2017-08-07T12:17:32.104Z,1148
2017-08-07T12:18:33.766Z,1124
2017-08-07T12:19:35.557Z,1132
2017-08-07T12:20:37.218Z,1208
2017-08-07T12:21:39.241Z,1396
2017-08-07T12:22:40.905Z,1476
2017-08-07T12:23:42.837Z,1480
2017-08-07T12:24:44.500Z,1536
2017-08-07T12:25:46.278Z,1672
2017-08-07T12:26:47.972Z,1512
2017-08-07T12:27:49.752Z,1516
2017-08-07T12:28:51.474Z,1672
2017-08-07T12:29:53.147Z,1776
2017-08-07T12:30:54.984Z,1592
2017-08-07T12:31:56.682Z,1452
2017-08-07T12:32:58.489Z,1420
2017-08-07T12:34:00.179Z,1404
2017-08-07T12:35:01.966Z,1428
2017-08-07T12:36:03.626Z,1492
2017-08-07T12:37:05.308Z,1560
2017-08-07T12:38:07.037Z,1660
2017-08-07T12:39:08.999Z,1508
2017-08-07T12:40:10.667Z,1380
2017-08-07T12:41:12.542Z,1320
2017-08-07T12:42:14.269Z,1244
2017-08-07T12:43:16.100Z,1196
2017-08-07T12:44:17.807Z,1180
2017-08-07T12:45:19.575Z,1196
2017-08-07T12:46:21.249Z,1152
2017-08-07T12:47:23.091Z,1300
2017-08-07T12:48:24.792Z,1376
2017-08-07T12:49:26.559Z,1436
2017-08-07T12:50:28.254Z,1316
2017-08-07T12:51:30.010Z,1204
2017-08-07T12:52:31.742Z,1212
2017-08-07T12:53:33.422Z,1220
2017-08-07T12:54:35.148Z,1288
2017-08-07T12:55:36.837Z,1364
2017-08-07T12:56:38.586Z,1404
2017-08-07T12:57:40.331Z,1332
2017-08-07T12:58:42.158Z,1348
2017-08-07T12:59:43.882Z,1360
2017-08-07T13:00:45.744Z,1364
2017-08-07T13:01:47.495Z,1372
2017-08-07T13:02:49.325Z,1356
2017-08-07T13:03:50.975Z,1348
2017-08-07T13:04:52.811Z,1308
2017-08-07T13:05:54.535Z,1324
2017-08-07T13:06:56.316Z,1336
2017-08-07T13:07:58.063Z,1316
2017-08-07T13:08:59.931Z,1384
2017-08-07T13:10:01.692Z,1456
2017-08-07T13:11:03.508Z,1400
2017-08-07T13:12:05.195Z,1304
2017-08-07T13:13:06.992Z,1200
2017-08-07T13:14:08.713Z,1184
2017-08-07T13:15:10.500Z,1172
2017-08-07T13:16:12.224Z,1196
2017-08-07T13:17:13.916Z,1192
2017-08-07T13:18:15.639Z,1180
2017-08-07T13:19:17.436Z,1152
2017-08-07T13:20:19.128Z,1148
2017-08-07T13:21:20.871Z,1200
2017-08-07T13:22:22.597Z,1296
2017-08-07T13:23:24.312Z,1340
2017-08-07T13:24:26.123Z,1336
2017-08-07T13:25:27.840Z,1376
2017-08-07T13:26:29.510Z,1408
2017-08-07T13:27:31.242Z,1436
2017-08-07T13:28:32.963Z,1428
2017-08-07T13:29:34.684Z,1444
2017-08-07T13:30:36.416Z,1456
2017-08-07T13:31:38.287Z,1424
2017-08-07T13:32:40.009Z,1492
2017-08-07T13:33:41.859Z,1508
2017-08-07T13:34:43.592Z,1520
2017-08-07T13:35:45.326Z,1544
2017-08-07T13:36:47.096Z,1536
2017-08-07T13:37:48.834Z,1492
2017-08-07T13:38:50.590Z,1436
2017-08-07T13:39:52.294Z,1380
2017-08-07T13:40:54.020Z,1336
2017-08-07T13:41:55.747Z,1304
2017-08-07T13:42:57.881Z,1244
2017-08-07T13:43:59.705Z,1272
2017-08-07T13:45:01.613Z,1292
2017-08-07T13:46:03.437Z,1324
2017-08-07T13:47:05.323Z,1376
2017-08-07T13:48:07.128Z,1420
2017-08-07T13:49:09.023Z,1488
2017-08-07T13:50:11.098Z,1556
2017-08-07T13:51:13.422Z,1596
2017-08-07T13:52:15.077Z,1600
2017-08-07T13:53:17.018Z,1644
2017-08-07T13:54:18.847Z,1700
2017-08-07T13:55:20.594Z,1700
2017-08-07T13:56:22.360Z,1612
2017-08-07T13:57:24.161Z,1588
2017-08-07T13:58:26.114Z,1520
2017-08-07T13:59:28.061Z,1560
2017-08-07T14:00:30.889Z,1620
2017-08-07T14:01:33.787Z,1620
2017-08-07T14:02:36.326Z,1508
2017-08-07T14:03:38.064Z,1456
2017-08-07T14:04:56.370Z,1424
2017-08-07T14:05:58.468Z,1460
2017-08-07T14:07:00.188Z,1448
2017-08-07T14:08:01.938Z,1468
2017-08-07T14:09:05.760Z,1480
2017-08-07T14:10:07.431Z,1460
2017-08-07T14:11:09.268Z,1404
2017-08-07T14:12:11.018Z,1364
2017-08-07T14:13:12.879Z,1352
2017-08-07T14:14:14.596Z,1340
2017-08-07T14:15:16.388Z,1352
2017-08-07T14:16:18.115Z,1324
2017-08-07T14:17:20.255Z,1296
2017-08-07T14:18:21.919Z,1296
2017-08-07T14:19:23.725Z,1292
2017-08-07T14:20:25.447Z,1300
2017-08-07T14:21:27.182Z,1312
2017-08-07T14:22:28.913Z,1316
2017-08-07T14:23:30.657Z,1316
2017-08-07T14:24:32.494Z,1288
2017-08-07T14:25:34.212Z,1248
2017-08-07T14:26:36.894Z,1220
2017-08-07T14:27:38.639Z,1188
2017-08-07T14:28:40.478Z,1160
2017-08-07T14:29:42.223Z,1128
2017-08-07T14:30:43.981Z,1120
2017-08-07T14:31:45.714Z,1132
2017-08-07T14:32:47.448Z,1148
2017-08-07T14:33:49.184Z,1144
2017-08-07T14:34:51.971Z,1136
2017-08-07T14:35:55.287Z,1148
2017-08-07T14:36:57.941Z,1168
2017-08-07T14:38:00.452Z,1188
2017-08-07T14:39:03.806Z,1212
2017-08-07T14:40:05.486Z,1232
2017-08-07T14:41:07.259Z,1240
2017-08-07T14:42:08.994Z,1236
2017-08-07T14:43:11.431Z,1196
2017-08-07T14:44:13.181Z,1148
2017-08-07T14:45:14.913Z,1108
2017-08-07T14:46:16.639Z,1064
2017-08-07T14:47:18.365Z,1028
2017-08-07T14:48:20.533Z,988
2017-08-07T14:49:22.267Z,956
2017-08-07T14:50:24.412Z,952
2017-08-07T14:51:26.127Z,964
2017-08-07T14:52:27.932Z,984
2017-08-07T14:53:29.693Z,996
2017-08-07T14:54:31.538Z,1000
2017-08-07T14:55:33.272Z,1000